sensor_id;sensor_type;location;lat;lon;timestamp;pressure;altitude;pressure_sealevel;temperature;humidity
35489;BME280;21602;55.670;37.578;2023-07-31T00:00:37;98440.91;;;19.12;63.90
35489;BME280;21602;55.670;37.578;2023-07-31T00:03:03;98447.44;;;19.11;63.94
35489;BME280;21602;55.670;37.578;2023-07-31T00:05:28;98441.53;;;19.09;63.96
35489;BME280;21602;55.670;37.578;2023-07-31T00:07:54;98439.44;;;19.06;64.07
35489;BME280;21602;55.670;37.578;2023-07-31T00:10:21;98440.56;;;19.05;64.45
35489;BME280;21602;55.670;37.578;2023-07-31T00:12:47;98447.88;;;19.04;64.37
35489;BME280;21602;55.670;37.578;2023-07-31T00:15:14;98445.47;;;19.03;64.26
35489;BME280;21602;55.670;37.578;2023-07-31T00:17:41;98445.00;;;19.01;64.51
35489;BME280;21602;55.670;37.578;2023-07-31T00:20:07;98447.50;;;18.97;64.44
35489;BME280;21602;55.670;37.578;2023-07-31T00:22:33;98443.22;;;18.96;64.63
35489;BME280;21602;55.670;37.578;2023-07-31T00:24:59;98442.44;;;18.96;64.83
35489;BME280;21602;55.670;37.578;2023-07-31T00:27:26;98434.44;;;18.90;64.94
35489;BME280;21602;55.670;37.578;2023-07-31T00:29:52;98445.41;;;18.85;65.16
35489;BME280;21602;55.670;37.578;2023-07-31T00:32:18;98446.81;;;18.83;65.23
35489;BME280;21602;55.670;37.578;2023-07-31T00:34:44;98447.72;;;18.78;65.45
35489;BME280;21602;55.670;37.578;2023-07-31T00:37:10;98445.34;;;18.77;65.73
35489;BME280;21602;55.670;37.578;2023-07-31T00:39:36;98441.03;;;18.76;65.49
35489;BME280;21602;55.670;37.578;2023-07-31T00:42:02;98439.75;;;18.73;65.80
35489;BME280;21602;55.670;37.578;2023-07-31T00:44:29;98441.97;;;18.71;66.36
35489;BME280;21602;55.670;37.578;2023-07-31T00:46:55;98444.47;;;18.67;66.34
35489;BME280;21602;55.670;37.578;2023-07-31T00:49:22;98435.03;;;18.65;66.46
35489;BME280;21602;55.670;37.578;2023-07-31T00:51:49;98430.28;;;18.62;66.83
35489;BME280;21602;55.670;37.578;2023-07-31T00:54:15;98433.28;;;18.60;67.05
35489;BME280;21602;55.670;37.578;2023-07-31T00:56:41;98431.47;;;18.56;67.07
35489;BME280;21602;55.670;37.578;2023-07-31T00:59:10;98435.94;;;18.52;67.21
35489;BME280;21602;55.670;37.578;2023-07-31T01:01:36;98436.22;;;18.50;67.82
35489;BME280;21602;55.670;37.578;2023-07-31T01:04:03;98428.91;;;18.51;67.33
35489;BME280;21602;55.670;37.578;2023-07-31T01:09:20;98431.94;;;18.49;67.61
35489;BME280;21602;55.670;37.578;2023-07-31T01:11:52;98437.16;;;18.46;67.75
35489;BME280;21602;55.670;37.578;2023-07-31T01:14:18;98437.16;;;18.46;67.90
35489;BME280;21602;55.670;37.578;2023-07-31T01:16:44;98434.75;;;18.44;67.80
35489;BME280;21602;55.670;37.578;2023-07-31T01:19:14;98439.38;;;18.43;68.07
35489;BME280;21602;55.670;37.578;2023-07-31T01:27:30;98426.97;;;18.42;68.26
35489;BME280;21602;55.670;37.578;2023-07-31T01:32:39;98426.66;;;18.44;68.24
35489;BME280;21602;55.670;37.578;2023-07-31T01:35:06;98437.78;;;18.42;68.08
35489;BME280;21602;55.670;37.578;2023-07-31T01:37:33;98435.34;;;18.41;68.41
35489;BME280;21602;55.670;37.578;2023-07-31T01:39:59;98438.56;;;18.43;68.05
35489;BME280;21602;55.670;37.578;2023-07-31T01:42:25;98437.78;;;18.42;68.24
35489;BME280;21602;55.670;37.578;2023-07-31T01:44:51;98434.56;;;18.40;68.42
35489;BME280;21602;55.670;37.578;2023-07-31T01:47:16;98441.09;;;18.39;68.52
35489;BME280;21602;55.670;37.578;2023-07-31T01:49:42;98438.97;;;18.36;68.41
35489;BME280;21602;55.670;37.578;2023-07-31T01:52:08;98435.19;;;18.37;68.39
35489;BME280;21602;55.670;37.578;2023-07-31T01:54:35;98427.09;;;18.37;68.68
35489;BME280;21602;55.670;37.578;2023-07-31T01:57:02;98431.38;;;18.38;68.54
35489;BME280;21602;55.670;37.578;2023-07-31T01:59:28;98429.28;;;18.35;68.57
35489;BME280;21602;55.670;37.578;2023-07-31T02:01:54;98430.41;;;18.34;68.83
35489;BME280;21602;55.670;37.578;2023-07-31T02:04:20;98443.91;;;18.34;68.91
35489;BME280;21602;55.670;37.578;2023-07-31T02:06:46;98435.81;;;18.34;68.88
35489;BME280;21602;55.670;37.578;2023-07-31T02:09:12;98437.38;;;18.35;68.87
35489;BME280;21602;55.670;37.578;2023-07-31T02:11:37;98431.19;;;18.35;68.89
35489;BME280;21602;55.670;37.578;2023-07-31T02:14:03;98437.91;;;18.37;68.69
35489;BME280;21602;55.670;37.578;2023-07-31T02:16:29;98439.19;;;18.40;68.83
35489;BME280;21602;55.670;37.578;2023-07-31T02:18:55;98430.75;;;18.41;68.49
35489;BME280;21602;55.670;37.578;2023-07-31T02:21:21;98435.56;;;18.45;68.53
35489;BME280;21602;55.670;37.578;2023-07-31T02:23:47;98433.16;;;18.43;68.41
35489;BME280;21602;55.670;37.578;2023-07-31T02:26:13;98434.94;;;18.48;68.57
35489;BME280;21602;55.670;37.578;2023-07-31T02:28:40;98430.69;;;18.55;68.20
35489;BME280;21602;55.670;37.578;2023-07-31T02:31:08;98437.41;;;18.58;67.88
35489;BME280;21602;55.670;37.578;2023-07-31T02:33:34;98433.47;;;18.64;67.88
35489;BME280;21602;55.670;37.578;2023-07-31T02:36:00;98433.97;;;18.66;67.37
35489;BME280;21602;55.670;37.578;2023-07-31T02:38:26;98432.56;;;18.68;67.63
35489;BME280;21602;55.670;37.578;2023-07-31T02:40:52;98439.44;;;18.75;67.36
35489;BME280;21602;55.670;37.578;2023-07-31T02:43:18;98435.50;;;18.81;67.10
35489;BME280;21602;55.670;37.578;2023-07-31T02:45:44;98445.88;;;18.87;66.92
35489;BME280;21602;55.670;37.578;2023-07-31T02:48:10;98437.16;;;18.90;66.77
35489;BME280;21602;55.670;37.578;2023-07-31T02:50:36;98436.66;;;18.88;66.74
35489;BME280;21602;55.670;37.578;2023-07-31T02:53:02;98432.34;;;18.87;66.74
35489;BME280;21602;55.670;37.578;2023-07-31T02:55:28;98439.84;;;18.90;66.33
35489;BME280;21602;55.670;37.578;2023-07-31T02:57:54;98438.75;;;18.91;66.88
35489;BME280;21602;55.670;37.578;2023-07-31T03:00:20;98437.31;;;18.94;66.63
35489;BME280;21602;55.670;37.578;2023-07-31T03:02:46;98441.63;;;18.95;66.69
35489;BME280;21602;55.670;37.578;2023-07-31T03:05:12;98437.50;;;18.98;66.92
35489;BME280;21602;55.670;37.578;2023-07-31T03:07:38;98433.06;;;19.02;66.88
35489;BME280;21602;55.670;37.578;2023-07-31T03:10:04;98437.84;;;19.05;66.98
35489;BME280;21602;55.670;37.578;2023-07-31T03:12:31;98438.19;;;19.12;67.13
35489;BME280;21602;55.670;37.578;2023-07-31T03:14:57;98443.84;;;19.24;66.82
35489;BME280;21602;55.670;37.578;2023-07-31T03:17:22;98427.63;;;19.33;66.53
35489;BME280;21602;55.670;37.578;2023-07-31T03:19:48;98431.31;;;19.45;66.44
35489;BME280;21602;55.670;37.578;2023-07-31T03:22:14;98433.09;;;19.50;65.79
35489;BME280;21602;55.670;37.578;2023-07-31T03:24:40;98428.97;;;19.53;65.19
35489;BME280;21602;55.670;37.578;2023-07-31T03:27:06;98432.03;;;19.60;65.20
35489;BME280;21602;55.670;37.578;2023-07-31T03:29:32;98425.66;;;19.64;64.98
35489;BME280;21602;55.670;37.578;2023-07-31T03:31:57;98435.72;;;19.73;64.86
35489;BME280;21602;55.670;37.578;2023-07-31T03:34:24;98433.19;;;19.76;64.40
35489;BME280;21602;55.670;37.578;2023-07-31T03:36:50;98440.66;;;19.79;63.88
35489;BME280;21602;55.670;37.578;2023-07-31T03:39:16;98430.78;;;19.83;63.91
35489;BME280;21602;55.670;37.578;2023-07-31T03:41:41;98429.06;;;19.87;63.63
35489;BME280;21602;55.670;37.578;2023-07-31T03:44:07;98432.72;;;19.91;63.48
35489;BME280;21602;55.670;37.578;2023-07-31T03:46:33;98430.34;;;19.90;63.05
35489;BME280;21602;55.670;37.578;2023-07-31T03:49:00;98428.09;;;19.92;63.64
35489;BME280;21602;55.670;37.578;2023-07-31T03:51:26;98434.47;;;19.96;63.32
35489;BME280;21602;55.670;37.578;2023-07-31T03:53:52;98430.81;;;20.01;63.17
35489;BME280;21602;55.670;37.578;2023-07-31T03:56:17;98434.66;;;20.08;63.35
35489;BME280;21602;55.670;37.578;2023-07-31T03:58:43;98442.31;;;20.15;62.63
35489;BME280;21602;55.670;37.578;2023-07-31T04:01:09;98437.84;;;20.19;62.62
35489;BME280;21602;55.670;37.578;2023-07-31T04:03:35;98438.16;;;20.26;62.12
35489;BME280;21602;55.670;37.578;2023-07-31T04:06:00;98442.47;;;20.27;61.87
35489;BME280;21602;55.670;37.578;2023-07-31T04:08:26;98448.53;;;20.24;61.44
35489;BME280;21602;55.670;37.578;2023-07-31T04:10:52;98448.03;;;20.22;61.82
35489;BME280;21602;55.670;37.578;2023-07-31T04:13:18;98446.94;;;20.23;61.54
35489;BME280;21602;55.670;37.578;2023-07-31T04:15:48;98451.06;;;20.29;61.35
35489;BME280;21602;55.670;37.578;2023-07-31T04:18:15;98457.91;;;20.35;61.43
35489;BME280;21602;55.670;37.578;2023-07-31T04:20:40;98455.53;;;20.42;60.93
35489;BME280;21602;55.670;37.578;2023-07-31T04:23:06;98454.91;;;20.54;62.47
35489;BME280;21602;55.670;37.578;2023-07-31T04:25:32;98456.50;;;20.64;61.60
35489;BME280;21602;55.670;37.578;2023-07-31T04:28:00;98452.53;;;20.70;61.47
35489;BME280;21602;55.670;37.578;2023-07-31T04:30:26;98454.41;;;20.78;62.62
35489;BME280;21602;55.670;37.578;2023-07-31T04:32:52;98454.72;;;20.85;61.86
35489;BME280;21602;55.670;37.578;2023-07-31T04:35:18;98461.09;;;20.89;61.36
35489;BME280;21602;55.670;37.578;2023-07-31T04:37:44;98457.41;;;20.94;62.42
35489;BME280;21602;55.670;37.578;2023-07-31T04:40:13;98461.69;;;21.04;62.17
35489;BME280;21602;55.670;37.578;2023-07-31T04:42:39;98460.38;;;21.10;61.42
35489;BME280;21602;55.670;37.578;2023-07-31T04:45:05;98460.22;;;21.15;61.00
35489;BME280;21602;55.670;37.578;2023-07-31T04:47:31;98449.19;;;21.20;61.38
35489;BME280;21602;55.670;37.578;2023-07-31T04:49:57;98452.03;;;21.23;61.61
35489;BME280;21602;55.670;37.578;2023-07-31T04:52:23;98459.66;;;21.30;60.60
35489;BME280;21602;55.670;37.578;2023-07-31T04:54:49;98456.94;;;21.30;59.85
35489;BME280;21602;55.670;37.578;2023-07-31T04:57:14;98474.38;;;21.29;59.00
35489;BME280;21602;55.670;37.578;2023-07-31T04:59:40;98465.09;;;21.30;59.24
35489;BME280;21602;55.670;37.578;2023-07-31T05:02:08;98464.31;;;21.30;59.39
35489;BME280;21602;55.670;37.578;2023-07-31T05:04:34;98466.88;;;21.35;59.47
35489;BME280;21602;55.670;37.578;2023-07-31T05:07:00;98458.56;;;21.31;58.61
35489;BME280;21602;55.670;37.578;2023-07-31T05:09:25;98465.09;;;21.30;58.78
35489;BME280;21602;55.670;37.578;2023-07-31T05:11:51;98466.22;;;21.38;58.94
35489;BME280;21602;55.670;37.578;2023-07-31T05:14:17;98468.25;;;21.50;59.39
35489;BME280;21602;55.670;37.578;2023-07-31T05:16:43;98469.19;;;21.54;57.91
35489;BME280;21602;55.670;37.578;2023-07-31T05:19:09;98473.03;;;21.53;57.86
35489;BME280;21602;55.670;37.578;2023-07-31T05:21:35;98468.72;;;21.52;57.21
35489;BME280;21602;55.670;37.578;2023-07-31T05:24:00;98468.13;;;21.46;56.82
35489;BME280;21602;55.670;37.578;2023-07-31T05:26:26;98465.06;;;21.47;56.92
35489;BME280;21602;55.670;37.578;2023-07-31T05:28:52;98471.28;;;21.48;56.94
35489;BME280;21602;55.670;37.578;2023-07-31T05:31:18;98472.06;;;21.48;57.03
35489;BME280;21602;55.670;37.578;2023-07-31T05:33:44;98469.38;;;21.48;56.34
35489;BME280;21602;55.670;37.578;2023-07-31T05:36:10;98474.63;;;21.54;56.92
35489;BME280;21602;55.670;37.578;2023-07-31T05:38:36;98466.88;;;21.64;56.83
35489;BME280;21602;55.670;37.578;2023-07-31T05:41:03;98466.84;;;21.73;56.53
35489;BME280;21602;55.670;37.578;2023-07-31T05:43:29;98472.22;;;21.82;56.43
35489;BME280;21602;55.670;37.578;2023-07-31T05:45:55;98469.81;;;21.89;56.28
35489;BME280;21602;55.670;37.578;2023-07-31T05:48:23;98472.91;;;21.99;55.74
35489;BME280;21602;55.670;37.578;2023-07-31T05:50:49;98470.00;;;22.05;55.66
35489;BME280;21602;55.670;37.578;2023-07-31T05:53:16;98476.03;;;22.10;55.31
35489;BME280;21602;55.670;37.578;2023-07-31T05:55:42;98475.72;;;22.12;55.24
35489;BME280;21602;55.670;37.578;2023-07-31T05:58:08;98468.38;;;22.12;55.29
35489;BME280;21602;55.670;37.578;2023-07-31T06:00:34;98473.66;;;22.09;54.50
35489;BME280;21602;55.670;37.578;2023-07-31T06:03:00;98466.16;;;22.06;54.39
35489;BME280;21602;55.670;37.578;2023-07-31T06:05:26;98471.75;;;22.09;54.54
35489;BME280;21602;55.670;37.578;2023-07-31T06:07:53;98473.28;;;22.19;54.88
35489;BME280;21602;55.670;37.578;2023-07-31T06:10:19;98467.91;;;22.31;54.23
35489;BME280;21602;55.670;37.578;2023-07-31T06:12:45;98472.97;;;22.41;54.33
35489;BME280;21602;55.670;37.578;2023-07-31T06:15:11;98467.97;;;22.43;54.35
35489;BME280;21602;55.670;37.578;2023-07-31T06:17:37;98469.56;;;22.44;54.52
35489;BME280;21602;55.670;37.578;2023-07-31T06:20:05;98472.75;;;22.46;54.49
35489;BME280;21602;55.670;37.578;2023-07-31T06:22:32;98480.50;;;22.57;54.49
35489;BME280;21602;55.670;37.578;2023-07-31T06:25:01;98469.66;;;22.69;54.46
35489;BME280;21602;55.670;37.578;2023-07-31T06:27:27;98469.25;;;22.79;53.15
35489;BME280;21602;55.670;37.578;2023-07-31T06:29:53;98476.06;;;22.85;52.71
35489;BME280;21602;55.670;37.578;2023-07-31T06:32:19;98476.81;;;22.94;52.57
35489;BME280;21602;55.670;37.578;2023-07-31T06:34:46;98476.94;;;22.98;51.23
35489;BME280;21602;55.670;37.578;2023-07-31T06:37:12;98479.78;;;23.02;50.85
35489;BME280;21602;55.670;37.578;2023-07-31T06:39:38;98478.88;;;23.10;51.19
35489;BME280;21602;55.670;37.578;2023-07-31T06:42:04;98479.94;;;23.17;51.05
35489;BME280;21602;55.670;37.578;2023-07-31T06:44:30;98483.09;;;23.19;50.54
35489;BME280;21602;55.670;37.578;2023-07-31T06:46:56;98481.88;;;23.17;50.62
35489;BME280;21602;55.670;37.578;2023-07-31T06:49:24;98479.94;;;23.17;50.17
35489;BME280;21602;55.670;37.578;2023-07-31T06:51:49;98482.06;;;23.12;50.26
35489;BME280;21602;55.670;37.578;2023-07-31T06:54:15;98486.38;;;23.13;50.60
35489;BME280;21602;55.670;37.578;2023-07-31T06:56:41;98485.03;;;23.19;50.62
35489;BME280;21602;55.670;37.578;2023-07-31T06:59:07;98480.03;;;23.21;49.51
35489;BME280;21602;55.670;37.578;2023-07-31T07:01:33;98490.69;;;23.26;49.97
35489;BME280;21602;55.670;37.578;2023-07-31T07:03:59;98481.88;;;23.29;49.39
35489;BME280;21602;55.670;37.578;2023-07-31T07:06:25;98484.03;;;23.36;49.33
35489;BME280;21602;55.670;37.578;2023-07-31T07:08:51;98489.16;;;23.37;49.70
35489;BME280;21602;55.670;37.578;2023-07-31T07:11:16;98488.22;;;23.33;48.58
35489;BME280;21602;55.670;37.578;2023-07-31T07:13:42;98492.41;;;23.31;48.43
35489;BME280;21602;55.670;37.578;2023-07-31T07:16:08;98493.19;;;23.19;47.87
35489;BME280;21602;55.670;37.578;2023-07-31T07:18:36;98495.25;;;23.22;48.58
35489;BME280;21602;55.670;37.578;2023-07-31T07:21:01;98489.59;;;23.27;47.88
35489;BME280;21602;55.670;37.578;2023-07-31T07:23:28;98497.06;;;23.30;47.95
35489;BME280;21602;55.670;37.578;2023-07-31T07:25:54;98488.22;;;23.33;48.18
35489;BME280;21602;55.670;37.578;2023-07-31T07:28:20;98490.38;;;23.40;47.83
35489;BME280;21602;55.670;37.578;2023-07-31T07:30:51;98495.59;;;23.45;47.33
35489;BME280;21602;55.670;37.578;2023-07-31T07:33:18;98492.44;;;23.43;46.71
35489;BME280;21602;55.670;37.578;2023-07-31T07:35:45;98503.91;;;23.48;46.76
35489;BME280;21602;55.670;37.578;2023-07-31T07:38:14;98488.03;;;23.50;46.34
35489;BME280;21602;55.670;37.578;2023-07-31T07:40:41;98488.91;;;23.55;46.02
35489;BME280;21602;55.670;37.578;2023-07-31T07:43:07;98495.09;;;23.64;45.79
35489;BME280;21602;55.670;37.578;2023-07-31T07:45:36;98491.00;;;23.70;45.29
35489;BME280;21602;55.670;37.578;2023-07-31T07:48:05;98488.16;;;23.66;44.76
35489;BME280;21602;55.670;37.578;2023-07-31T07:50:31;98490.53;;;23.68;45.06
35489;BME280;21602;55.670;37.578;2023-07-31T07:52:57;98501.44;;;23.80;45.17
35489;BME280;21602;55.670;37.578;2023-07-31T07:55:23;98499.97;;;23.83;45.41
35489;BME280;21602;55.670;37.578;2023-07-31T07:57:49;98494.41;;;23.79;45.61
35489;BME280;21602;55.670;37.578;2023-07-31T08:00:16;98496.66;;;23.77;45.64
35489;BME280;21602;55.670;37.578;2023-07-31T08:02:57;98489.97;;;23.87;46.08
35489;BME280;21602;55.670;37.578;2023-07-31T08:05:32;98497.13;;;23.91;46.46
35489;BME280;21602;55.670;37.578;2023-07-31T08:07:59;98495.06;;;24.00;46.15
35489;BME280;21602;55.670;37.578;2023-07-31T08:10:25;98502.81;;;23.98;44.98
35489;BME280;21602;55.670;37.578;2023-07-31T08:12:51;98501.31;;;24.01;45.87
35489;BME280;21602;55.670;37.578;2023-07-31T08:15:17;98502.78;;;24.11;45.28
35489;BME280;21602;55.670;37.578;2023-07-31T08:17:42;98499.13;;;24.19;45.50
35489;BME280;21602;55.670;37.578;2023-07-31T08:20:11;98500.22;;;24.30;44.94
35489;BME280;21602;55.670;37.578;2023-07-31T08:22:37;98504.91;;;24.30;44.68
35489;BME280;21602;55.670;37.578;2023-07-31T08:25:03;98506.63;;;24.22;45.16
35489;BME280;21602;55.670;37.578;2023-07-31T08:27:29;98503.81;;;24.06;44.93
35489;BME280;21602;55.670;37.578;2023-07-31T08:29:55;98502.91;;;24.02;45.43
35489;BME280;21602;55.670;37.578;2023-07-31T08:32:21;98505.41;;;24.07;45.80
35489;BME280;21602;55.670;37.578;2023-07-31T08:34:47;98507.97;;;24.28;45.42
35489;BME280;21602;55.670;37.578;2023-07-31T08:37:25;98509.47;;;24.38;44.20
35489;BME280;21602;55.670;37.578;2023-07-31T08:39:55;98503.75;;;24.31;44.49
35489;BME280;21602;55.670;37.578;2023-07-31T08:42:21;98512.28;;;24.29;44.24
35489;BME280;21602;55.670;37.578;2023-07-31T08:44:47;98512.88;;;24.22;43.06
35489;BME280;21602;55.670;37.578;2023-07-31T08:47:15;98508.22;;;24.23;43.64
35489;BME280;21602;55.670;37.578;2023-07-31T08:49:42;98510.47;;;24.21;43.99
35489;BME280;21602;55.670;37.578;2023-07-31T08:52:10;98506.28;;;24.23;44.24
35489;BME280;21602;55.670;37.578;2023-07-31T08:54:36;98511.41;;;24.37;44.81
35489;BME280;21602;55.670;37.578;2023-07-31T08:57:02;98508.97;;;24.48;44.42
35489;BME280;21602;55.670;37.578;2023-07-31T08:59:32;98514.41;;;24.60;44.15
35489;BME280;21602;55.670;37.578;2023-07-31T09:02:05;98515.72;;;24.66;43.93
35489;BME280;21602;55.670;37.578;2023-07-31T09:04:32;98512.16;;;24.78;43.54
35489;BME280;21602;55.670;37.578;2023-07-31T09:07:00;98511.75;;;24.92;43.77
35489;BME280;21602;55.670;37.578;2023-07-31T09:09:32;98509.47;;;24.94;43.50
35489;BME280;21602;55.670;37.578;2023-07-31T09:11:58;98512.53;;;24.92;43.88
35489;BME280;21602;55.670;37.578;2023-07-31T09:14:25;98512.38;;;25.01;44.30
35489;BME280;21602;55.670;37.578;2023-07-31T09:16:55;98507.78;;;25.17;44.16
35489;BME280;21602;55.670;37.578;2023-07-31T09:19:29;98498.91;;;25.36;43.64
35489;BME280;21602;55.670;37.578;2023-07-31T09:21:55;98518.03;;;25.52;43.33
35489;BME280;21602;55.670;37.578;2023-07-31T09:24:29;98517.03;;;25.44;43.64
35489;BME280;21602;55.670;37.578;2023-07-31T09:27:01;98506.66;;;25.34;43.12
35489;BME280;21602;55.670;37.578;2023-07-31T09:29:29;98503.75;;;25.27;42.56
35489;BME280;21602;55.670;37.578;2023-07-31T09:31:57;98506.91;;;25.29;42.48
35489;BME280;21602;55.670;37.578;2023-07-31T09:34:37;98502.59;;;25.44;42.42
35489;BME280;21602;55.670;37.578;2023-07-31T09:37:07;98502.34;;;25.65;42.30
35489;BME280;21602;55.670;37.578;2023-07-31T09:39:46;98501.78;;;25.91;41.66
35489;BME280;21602;55.670;37.578;2023-07-31T09:42:12;98503.81;;;25.94;41.33
35489;BME280;21602;55.670;37.578;2023-07-31T09:44:41;98515.00;;;25.73;40.62
35489;BME280;21602;55.670;37.578;2023-07-31T09:47:21;98520.22;;;25.46;41.03
35489;BME280;21602;55.670;37.578;2023-07-31T09:49:47;98506.47;;;25.43;41.64
35489;BME280;21602;55.670;37.578;2023-07-31T09:52:16;98508.00;;;25.40;41.75
35489;BME280;21602;55.670;37.578;2023-07-31T09:54:42;98503.84;;;25.46;41.97
35489;BME280;21602;55.670;37.578;2023-07-31T09:57:08;98502.06;;;25.70;42.01
35489;BME280;21602;55.670;37.578;2023-07-31T09:59:35;98496.41;;;25.94;41.98
35489;BME280;21602;55.670;37.578;2023-07-31T10:02:01;98506.88;;;26.08;41.85
35489;BME280;21602;55.670;37.578;2023-07-31T10:04:27;98503.00;;;26.09;41.50
35489;BME280;21602;55.670;37.578;2023-07-31T10:06:54;98514.56;;;26.02;41.37
35489;BME280;21602;55.670;37.578;2023-07-31T10:09:23;98503.63;;;26.02;41.43
35489;BME280;21602;55.670;37.578;2023-07-31T10:11:59;98507.88;;;26.00;41.37
35489;BME280;21602;55.670;37.578;2023-07-31T10:14:26;98510.72;;;25.88;41.48
35489;BME280;21602;55.670;37.578;2023-07-31T10:16:54;98508.19;;;25.79;41.23
35489;BME280;21602;55.670;37.578;2023-07-31T10:19:20;98504.72;;;25.82;41.55
35489;BME280;21602;55.670;37.578;2023-07-31T10:21:49;98509.91;;;25.87;41.48
35489;BME280;21602;55.670;37.578;2023-07-31T10:24:15;98519.78;;;25.92;41.77
35489;BME280;21602;55.670;37.578;2023-07-31T10:26:45;98515.47;;;25.91;41.62
35489;BME280;21602;55.670;37.578;2023-07-31T10:29:12;98522.88;;;25.90;41.26
35489;BME280;21602;55.670;37.578;2023-07-31T10:31:38;98506.06;;;25.88;41.46
35489;BME280;21602;55.670;37.578;2023-07-31T10:34:05;98511.06;;;25.86;41.27
35489;BME280;21602;55.670;37.578;2023-07-31T10:36:30;98508.00;;;25.88;41.59
35489;BME280;21602;55.670;37.578;2023-07-31T10:38:56;98511.16;;;25.90;41.46
35489;BME280;21602;55.670;37.578;2023-07-31T10:41:29;98511.66;;;25.95;41.53
35489;BME280;21602;55.670;37.578;2023-07-31T10:44:00;98517.59;;;25.97;41.76
35489;BME280;21602;55.670;37.578;2023-07-31T10:46:28;98517.66;;;26.01;41.55
35489;BME280;21602;55.670;37.578;2023-07-31T10:48:59;98513.69;;;25.98;41.75
35489;BME280;21602;55.670;37.578;2023-07-31T10:51:33;98521.81;;;25.95;41.85
35489;BME280;21602;55.670;37.578;2023-07-31T10:54:27;98510.44;;;25.93;41.53
35489;BME280;21602;55.670;37.578;2023-07-31T10:56:52;98518.56;;;25.89;41.81
35489;BME280;21602;55.670;37.578;2023-07-31T10:59:18;98512.22;;;25.85;41.29
35489;BME280;21602;55.670;37.578;2023-07-31T11:01:52;98518.38;;;25.82;41.23
35489;BME280;21602;55.670;37.578;2023-07-31T11:04:25;98516.19;;;25.88;41.68
35489;BME280;21602;55.670;37.578;2023-07-31T11:07:01;98516.34;;;25.95;41.58
35489;BME280;21602;55.670;37.578;2023-07-31T11:09:32;98525.66;;;26.10;41.72
35489;BME280;21602;55.670;37.578;2023-07-31T11:12:00;98514.19;;;26.39;41.38
35489;BME280;21602;55.670;37.578;2023-07-31T11:14:26;98502.72;;;26.69;40.68
35489;BME280;21602;55.670;37.578;2023-07-31T11:16:52;98510.94;;;26.88;40.64
35489;BME280;21602;55.670;37.578;2023-07-31T11:19:22;98501.97;;;26.91;39.39
35489;BME280;21602;55.670;37.578;2023-07-31T11:21:49;98504.00;;;26.94;39.90
35489;BME280;21602;55.670;37.578;2023-07-31T11:24:15;98504.19;;;27.05;39.80
35489;BME280;21602;55.670;37.578;2023-07-31T11:26:54;98495.47;;;27.19;39.78
35489;BME280;21602;55.670;37.578;2023-07-31T11:29:20;98496.00;;;27.28;40.27
35489;BME280;21602;55.670;37.578;2023-07-31T11:31:47;98495.22;;;27.27;40.34
35489;BME280;21602;55.670;37.578;2023-07-31T11:34:14;98501.78;;;27.23;40.22
35489;BME280;21602;55.670;37.578;2023-07-31T11:36:40;98501.38;;;27.21;40.86
35489;BME280;21602;55.670;37.578;2023-07-31T11:39:08;98502.34;;;27.09;40.92
35489;BME280;21602;55.670;37.578;2023-07-31T11:41:34;98495.28;;;26.89;40.89
35489;BME280;21602;55.670;37.578;2023-07-31T11:44:01;98499.69;;;26.74;41.28
35489;BME280;21602;55.670;37.578;2023-07-31T11:46:30;98498.38;;;26.68;41.54
35489;BME280;21602;55.670;37.578;2023-07-31T11:49:00;98497.25;;;26.69;41.70
35489;BME280;21602;55.670;37.578;2023-07-31T11:51:36;98502.22;;;26.83;41.66
35489;BME280;21602;55.670;37.578;2023-07-31T11:54:02;98500.56;;;27.01;41.94
35489;BME280;21602;55.670;37.578;2023-07-31T11:56:29;98504.78;;;27.14;41.70
35489;BME280;21602;55.670;37.578;2023-07-31T11:58:58;98501.19;;;27.33;41.44
35489;BME280;21602;55.670;37.578;2023-07-31T12:01:26;98494.84;;;27.52;41.55
35489;BME280;21602;55.670;37.578;2023-07-31T12:03:56;98497.22;;;27.53;41.39
35489;BME280;21602;55.670;37.578;2023-07-31T12:06:33;98506.81;;;27.40;41.41
35489;BME280;21602;55.670;37.578;2023-07-31T12:09:06;98499.78;;;27.20;41.06
35489;BME280;21602;55.670;37.578;2023-07-31T12:11:42;98497.19;;;27.08;41.46
35489;BME280;21602;55.670;37.578;2023-07-31T12:14:08;98506.56;;;27.06;41.93
35489;BME280;21602;55.670;37.578;2023-07-31T12:16:44;98504.94;;;27.25;41.89
35489;BME280;21602;55.670;37.578;2023-07-31T12:19:10;98504.00;;;27.37;41.56
35489;BME280;21602;55.670;37.578;2023-07-31T12:21:37;98504.53;;;27.46;41.95
35489;BME280;21602;55.670;37.578;2023-07-31T12:24:04;98504.78;;;27.37;42.18
35489;BME280;21602;55.670;37.578;2023-07-31T12:26:36;98502.22;;;27.25;41.83
35489;BME280;21602;55.670;37.578;2023-07-31T12:29:02;98507.66;;;27.21;41.87
35489;BME280;21602;55.670;37.578;2023-07-31T12:31:33;98507.88;;;27.13;41.32
35489;BME280;21602;55.670;37.578;2023-07-31T12:33:59;98513.28;;;26.90;41.53
35489;BME280;21602;55.670;37.578;2023-07-31T12:36:25;98515.31;;;26.93;41.53
35489;BME280;21602;55.670;37.578;2023-07-31T12:38:52;98516.22;;;27.00;41.54
35489;BME280;21602;55.670;37.578;2023-07-31T12:41:19;98510.81;;;27.04;41.25
35489;BME280;21602;55.670;37.578;2023-07-31T12:43:45;98516.72;;;27.06;41.16
35489;BME280;21602;55.670;37.578;2023-07-31T12:46:11;98510.63;;;27.13;41.25
35489;BME280;21602;55.670;37.578;2023-07-31T12:48:38;98519.25;;;26.95;41.11
35489;BME280;21602;55.670;37.578;2023-07-31T12:51:05;98517.19;;;26.89;41.38
35489;BME280;21602;55.670;37.578;2023-07-31T12:53:32;98516.31;;;26.85;41.54
35489;BME280;21602;55.670;37.578;2023-07-31T12:55:58;98509.97;;;26.80;41.55
35489;BME280;21602;55.670;37.578;2023-07-31T12:58:24;98511.72;;;26.69;41.90
35489;BME280;21602;55.670;37.578;2023-07-31T13:00:51;98514.38;;;26.66;41.91